Time;durP1;ratioP1;P1;durP2;ratioP2;P2;SDS_P1;SDS_P2;PMS_P1;PMS_P2;Temp;Humidity;BMP_temperature;BMP_pressure;BME280_temperature;BME280_humidity;BME280_pressure;Samples;Min_cycle;Max_cycle;Signal;HPM_P1;HPM_P2
2022/07/30 00:01:09;;;;;;;4.77;2.10;;;;;;;24.56;46.74;100403.63;5029563;28;20419;-72
2022/07/30 00:03:34;;;;;;;2.10;2.00;;;;;;;24.52;46.99;100395.16;5027791;28;20405;-72
2022/07/30 00:05:59;;;;;;;2.07;1.97;;;;;;;24.46;47.33;100401.25;5023314;28;20412;-72
2022/07/30 00:08:24;;;;;;;2.87;2.27;;;;;;;24.39;47.59;100401.81;5014300;28;20766;-72
2022/07/30 00:10:50;;;;;;;2.90;1.97;;;;;;;24.36;47.55;100399.72;5015885;28;20409;-73
2022/07/30 00:13:16;;;;;;;3.85;2.17;;;;;;;24.36;47.42;100396.94;5014388;28;20424;-72
2022/07/30 00:15:41;;;;;;;3.80;2.47;;;;;;;24.34;47.51;100401.16;5014669;28;20935;-72
2022/07/30 00:18:07;;;;;;;2.22;1.95;;;;;;;24.27;47.70;100402.53;5021304;28;20772;-72
2022/07/30 00:20:32;;;;;;;2.77;2.23;;;;;;;24.23;47.86;100400.78;5014060;28;20413;-72
2022/07/30 00:22:57;;;;;;;2.07;1.93;;;;;;;24.14;48.00;100392.53;5012779;28;20544;-72
2022/07/30 00:25:23;;;;;;;2.00;1.73;;;;;;;24.08;48.26;100396.63;5017534;28;20412;-73
2022/07/30 00:27:48;;;;;;;1.90;1.80;;;;;;;24.03;48.40;100396.81;5013898;28;20404;-73
2022/07/30 00:30:14;;;;;;;2.30;2.13;;;;;;;23.98;48.17;100391.47;5014455;28;20934;-72
2022/07/30 00:32:39;;;;;;;5.65;2.42;;;;;;;23.94;48.52;100390.50;5014499;28;20971;-72
2022/07/30 00:35:05;;;;;;;3.97;1.83;;;;;;;23.91;48.52;100391.19;5039648;28;20449;-72
2022/07/30 00:37:30;;;;;;;3.92;2.05;;;;;;;23.87;48.40;100393.03;5021469;28;20784;-72
2022/07/30 00:39:56;;;;;;;6.87;2.20;;;;;;;23.82;48.62;100389.63;5014176;28;20416;-72
2022/07/30 00:42:24;;;;;;;6.50;2.67;;;;;;;23.76;48.94;100389.00;5014254;28;20763;-72
2022/07/30 00:44:53;;;;;;;5.90;2.78;;;;;;;23.72;49.62;100390.81;5023417;28;20800;-72
2022/07/30 00:47:18;;;;;;;3.25;2.28;;;;;;;23.64;50.02;100392.50;5014254;28;20753;-72
2022/07/30 00:49:43;;;;;;;2.42;2.22;;;;;;;23.55;50.59;100396.44;5013612;28;20404;-72
2022/07/30 00:52:09;;;;;;;9.63;2.47;;;;;;;23.41;50.95;100388.38;5013528;28;20397;-72
2022/07/30 00:54:34;;;;;;;3.47;2.10;;;;;;;23.41;51.14;100390.34;5018257;28;20420;-73
2022/07/30 00:57:00;;;;;;;8.73;2.57;;;;;;;23.40;51.19;100396.97;5029309;28;20741;-73
2022/07/30 00:59:27;;;;;;;8.05;4.10;;;;;;;23.39;51.23;100392.56;5016813;28;20451;-72
2022/07/30 01:01:53;;;;;;;6.32;3.40;;;;;;;23.34;51.39;100398.31;5004843;28;20488;-72
2022/07/30 01:04:19;;;;;;;34.88;3.90;;;;;;;23.33;51.63;100386.41;5014933;28;20900;-72
2022/07/30 01:06:44;;;;;;;8.63;3.20;;;;;;;23.33;51.32;100389.19;5013926;28;20401;-72
2022/07/30 01:09:09;;;;;;;6.67;2.57;;;;;;;23.25;51.48;100387.25;5018499;28;20415;-72
2022/07/30 01:11:41;;;;;;;6.13;2.90;;;;;;;23.22;51.34;100374.09;5012052;28;20401;-72
2022/07/30 01:14:08;;;;;;;7.40;3.25;;;;;;;23.24;51.26;100389.22;5014874;28;20416;-72
2022/07/30 01:16:36;;;;;;;7.88;3.17;;;;;;;23.25;51.29;100384.50;5013800;28;20392;-72
2022/07/30 01:21:59;;;;;;;6.60;2.55;;;;;;;23.29;50.66;100379.94;5015653;28;20926;-72
2022/07/30 01:24:44;;;;;;;7.60;2.47;;;;;;;23.30;50.66;100372.44;5023284;28;20409;-72
2022/07/30 01:27:11;;;;;;;6.18;2.63;;;;;;;23.23;50.71;100367.44;5013450;28;20902;-72
2022/07/30 01:29:39;;;;;;;8.52;2.30;;;;;;;23.15;50.78;100366.31;5012109;28;20389;-72
2022/07/30 01:32:07;;;;;;;7.90;2.65;;;;;;;23.07;51.26;100372.69;5013400;28;20389;-72
2022/07/30 01:34:36;;;;;;;10.30;2.90;;;;;;;23.03;51.33;100370.91;5019864;28;20407;-72
2022/07/30 01:37:03;;;;;;;7.68;2.58;;;;;;;23.04;51.49;100378.88;5019603;28;20748;-72
2022/07/30 01:39:29;;;;;;;5.90;2.60;;;;;;;23.03;51.51;100370.91;5013368;28;20471;-72
2022/07/30 01:41:56;;;;;;;9.85;2.97;;;;;;;22.98;51.72;100374.69;5011003;28;20877;-72
2022/07/30 01:44:24;;;;;;;6.60;2.40;;;;;;;22.96;51.89;100379.72;5018262;28;20400;-72
2022/07/30 01:46:51;;;;;;;4.57;2.70;;;;;;;22.92;51.96;100375.19;5019801;28;20401;-72
2022/07/30 01:49:18;;;;;;;12.20;2.75;;;;;;;22.87;51.99;100384.44;5015446;28;20427;-72
2022/07/30 01:51:46;;;;;;;8.18;2.80;;;;;;;22.80;52.22;100384.13;5013385;28;20488;-72
2022/07/30 01:54:13;;;;;;;6.63;2.92;;;;;;;22.74;52.53;100380.75;5016613;28;20415;-72
2022/07/30 01:56:40;;;;;;;8.90;2.80;;;;;;;22.73;52.40;100387.41;5019760;28;20424;-72
2022/07/30 01:59:06;;;;;;;4.68;2.60;;;;;;;22.73;52.45;100389.34;5012252;28;20427;-72
2022/07/30 02:01:32;;;;;;;5.60;2.70;;;;;;;22.69;52.35;100393.88;5011382;28;20458;-72
2022/07/30 02:04:00;;;;;;;8.00;2.87;;;;;;;22.65;52.38;100395.69;5014271;28;21874;-72
2022/07/30 02:06:32;;;;;;;5.88;2.58;;;;;;;22.60;52.56;100399.41;5021663;28;20480;-72
2022/07/30 02:09:02;;;;;;;5.95;2.97;;;;;;;22.49;52.54;100394.56;5025185;28;20415;-72
2022/07/30 02:14:27;;;;;;;3.03;2.60;;;;;;;22.46;52.57;100404.28;5012014;28;20384;-71
2022/07/30 02:16:57;;;;;;;3.38;2.60;;;;;;;22.45;52.44;100399.09;5012995;28;20457;-72
2022/07/30 02:19:27;;;;;;;5.25;2.38;;;;;;;22.46;52.71;100401.50;5020737;28;20428;-72
2022/07/30 02:22:04;;;;;;;3.05;2.53;;;;;;;22.32;52.85;100403.66;5027660;28;20891;-72
2022/07/30 02:24:30;;;;;;;2.85;2.47;;;;;;;22.19;53.18;100407.38;5012601;28;20397;-72
2022/07/30 02:27:01;;;;;;;2.70;2.50;;;;;;;22.10;53.34;100418.38;5026276;28;20549;-72
2022/07/30 02:29:28;;;;;;;6.13;2.57;;;;;;;22.05;53.63;100418.56;5012494;28;20385;-72
2022/07/30 02:31:56;;;;;;;2.42;2.33;;;;;;;21.92;53.83;100418.69;5020947;28;20438;-72
2022/07/30 02:34:24;;;;;;;4.30;2.65;;;;;;;21.82;54.04;100418.94;5016251;28;20397;-72
2022/07/30 02:36:51;;;;;;;3.22;2.45;;;;;;;21.86;53.80;100420.75;5011437;28;20420;-72
2022/07/30 02:39:20;;;;;;;4.25;2.55;;;;;;;21.96;53.87;100422.44;5012378;28;20440;-72
2022/07/30 02:41:47;;;;;;;4.40;2.78;;;;;;;21.99;53.59;100424.53;5011585;28;20462;-72
2022/07/30 02:44:17;;;;;;;5.78;2.90;;;;;;;21.96;53.58;100428.75;5013688;28;20439;-71
2022/07/30 02:46:44;;;;;;;2.92;2.45;;;;;;;21.89;53.56;100433.94;5011630;28;20436;-71
2022/07/30 02:49:11;;;;;;;2.67;2.55;;;;;;;21.93;53.56;100437.66;5027088;28;20412;-72
2022/07/30 02:51:36;;;;;;;2.65;2.45;;;;;;;21.96;53.47;100430.72;5011971;28;20450;-72
2022/07/30 02:54:03;;;;;;;2.70;2.50;;;;;;;21.87;53.51;100433.41;5011250;28;20487;-72
2022/07/30 02:56:30;;;;;;;2.55;2.35;;;;;;;21.84;53.59;100438.75;5018611;28;20899;-71
2022/07/30 02:58:57;;;;;;;2.85;2.30;;;;;;;21.89;53.51;100436.69;5024059;28;20392;-71
2022/07/30 03:01:23;;;;;;;3.92;2.30;;;;;;;21.87;53.52;100441.66;5011657;28;20396;-71
2022/07/30 03:03:50;;;;;;;3.65;2.42;;;;;;;21.90;53.35;100441.06;5011797;28;20476;-74
2022/07/30 03:06:17;;;;;;;5.63;2.85;;;;;;;21.89;53.25;100444.97;5011944;28;20535;-73
2022/07/30 03:08:44;;;;;;;5.03;2.37;;;;;;;21.89;53.36;100444.97;5021097;28;20879;-72
2022/07/30 03:11:11;;;;;;;3.67;2.60;;;;;;;21.89;53.33;100442.22;5011397;28;20405;-71
2022/07/30 03:13:37;;;;;;;3.77;2.53;;;;;;;21.88;53.27;100445.25;5015974;28;20407;-71
2022/07/30 03:16:05;;;;;;;5.25;2.50;;;;;;;21.89;53.22;100438.59;5026093;28;20416;-71
2022/07/30 03:18:33;;;;;;;4.15;2.70;;;;;;;21.90;52.85;100449.34;5019334;28;20405;-72
2022/07/30 03:21:00;;;;;;;3.63;2.47;;;;;;;21.90;52.59;100443.03;5020347;28;20510;-71
2022/07/30 03:23:26;;;;;;;3.88;2.78;;;;;;;21.90;52.53;100443.03;5015237;28;20401;-71
2022/07/30 03:26:00;;;;;;;3.80;2.70;;;;;;;21.92;52.52;100446.28;5011630;28;20412;-71
2022/07/30 03:28:26;;;;;;;2.50;2.30;;;;;;;21.91;52.39;100444.63;5017875;28;20498;-71
2022/07/30 03:30:53;;;;;;;4.35;2.30;;;;;;;21.86;52.56;100451.09;5011494;28;20428;-74
2022/07/30 03:33:19;;;;;;;4.15;2.58;;;;;;;21.83;52.61;100448.16;5011597;28;20408;-71
2022/07/30 03:35:46;;;;;;;2.88;2.35;;;;;;;21.81;52.74;100455.94;5011335;28;20479;-74
2022/07/30 03:38:15;;;;;;;3.15;2.85;;;;;;;21.77;52.99;100450.25;5011387;28;20511;-72
2022/07/30 03:40:41;;;;;;;2.80;2.40;;;;;;;21.71;53.11;100457.84;5011000;28;20424;-72
2022/07/30 03:43:11;;;;;;;3.15;2.40;;;;;;;21.74;53.06;100457.22;5011517;28;20397;-71
2022/07/30 03:45:40;;;;;;;4.85;2.45;;;;;;;21.67;53.52;100462.38;5017294;28;20423;-72
2022/07/30 03:48:08;;;;;;;2.33;2.22;;;;;;;21.67;53.17;100458.78;5016885;28;20407;-74
2022/07/30 03:50:35;;;;;;;4.40;3.78;;;;;;;21.65;53.30;100461.88;5019068;28;20404;-71
2022/07/30 03:53:03;;;;;;;2.90;2.75;;;;;;;21.70;52.97;100458.97;5011299;28;20420;-71
2022/07/30 03:55:29;;;;;;;3.80;2.43;;;;;;;21.73;52.69;100463.06;5010915;28;20454;-73
2022/07/30 03:57:55;;;;;;;3.17;2.50;;;;;;;21.66;53.06;100469.03;5012628;28;20768;-73
2022/07/30 04:00:20;;;;;;;3.60;2.30;;;;;;;21.65;53.04;100467.41;5011167;28;20413;-74
2022/07/30 04:02:46;;;;;;;3.43;2.97;;;;;;;21.64;52.96;100474.03;5011164;28;20496;-73
2022/07/30 04:05:13;;;;;;;4.25;2.80;;;;;;;21.53;53.35;100461.69;5012060;28;20408;-73
2022/07/30 04:07:38;;;;;;;4.00;2.73;;;;;;;21.46;53.58;100480.63;5019530;28;20415;-73
2022/07/30 04:10:04;;;;;;;4.45;3.08;;;;;;;21.50;53.42;100470.59;5022380;28;20741;-73
2022/07/30 04:12:30;;;;;;;3.40;2.58;;;;;;;21.52;53.41;100468.31;5019650;28;20413;-73
2022/07/30 04:14:56;;;;;;;6.53;2.90;;;;;;;21.49;53.60;100477.22;5031890;28;20770;-74
2022/07/30 04:17:26;;;;;;;4.00;2.85;;;;;;;21.40;53.78;100479.13;5014834;28;20392;-73
2022/07/30 04:20:06;;;;;;;5.53;3.00;;;;;;;21.35;53.96;100484.78;5014674;28;20409;-73
2022/07/30 04:22:34;;;;;;;4.20;2.78;;;;;;;21.26;54.28;100488.59;5014553;28;20570;-73
2022/07/30 04:25:01;;;;;;;4.25;2.63;;;;;;;21.19;54.45;100487.09;5019193;28;20411;-73
2022/07/30 04:27:29;;;;;;;4.93;2.83;;;;;;;21.09;54.91;100494.78;5014465;28;20389;-74
2022/07/30 04:29:55;;;;;;;4.50;2.88;;;;;;;21.02;55.03;100488.91;5014492;28;20389;-73
2022/07/30 04:32:21;;;;;;;5.20;2.65;;;;;;;21.05;55.13;100488.25;5018993;28;20407;-73
2022/07/30 04:34:51;;;;;;;4.50;2.87;;;;;;;20.99;55.49;100495.84;5018870;28;20934;-73
2022/07/30 04:37:18;;;;;;;5.20;2.90;;;;;;;20.93;55.72;100497.09;5013164;28;20405;-73
2022/07/30 04:39:44;;;;;;;6.13;3.03;;;;;;;20.94;55.50;100500.69;5013702;28;20783;-74
2022/07/30 04:42:10;;;;;;;7.55;2.67;;;;;;;20.97;55.47;100500.06;5012915;28;20900;-74
2022/07/30 04:44:37;;;;;;;5.17;3.20;;;;;;;21.01;55.48;100503.81;5017140;28;20421;-73
2022/07/30 04:47:03;;;;;;;3.07;2.80;;;;;;;21.04;55.34;100506.72;5014296;28;20400;-73
2022/07/30 04:49:29;;;;;;;2.90;2.58;;;;;;;21.05;55.42;100510.31;5013395;28;20413;-73
2022/07/30 04:51:55;;;;;;;3.72;2.65;;;;;;;21.03;55.56;100507.06;5014162;28;20451;-73
2022/07/30 04:54:23;;;;;;;3.10;2.83;;;;;;;20.99;55.77;100515.13;5015530;28;20422;-73
2022/07/30 04:56:50;;;;;;;3.35;2.72;;;;;;;21.03;55.58;100513.38;5019346;28;20418;-73
2022/07/30 04:59:17;;;;;;;5.60;3.17;;;;;;;21.04;55.61;100520.50;5023216;28;20467;-73
2022/07/30 05:01:47;;;;;;;2.80;2.55;;;;;;;21.07;55.57;100521.84;5013124;28;20487;-73
2022/07/30 05:04:14;;;;;;;8.25;2.92;;;;;;;21.05;55.73;100521.34;5013370;28;20503;-73
2022/07/30 05:06:40;;;;;;;4.90;2.50;;;;;;;21.00;55.87;100516.78;5013663;28;20848;-73
2022/07/30 05:09:06;;;;;;;4.72;2.92;;;;;;;20.94;56.22;100520.78;5013247;28;20803;-73
2022/07/30 05:11:31;;;;;;;3.80;2.70;;;;;;;21.03;56.03;100518.91;5013312;28;20389;-73
2022/07/30 05:13:57;;;;;;;3.60;2.67;;;;;;;21.09;55.74;100525.94;5013764;28;20415;-73
2022/07/30 05:16:22;;;;;;;3.43;2.60;;;;;;;21.13;55.77;100526.13;5009404;28;20404;-73
2022/07/30 05:18:47;;;;;;;3.03;2.73;;;;;;;21.17;55.59;100527.16;5012562;28;20467;-73
2022/07/30 05:21:12;;;;;;;3.07;2.67;;;;;;;21.19;55.60;100517.44;5016639;28;20414;-73
2022/07/30 05:23:38;;;;;;;4.57;3.03;;;;;;;21.24;55.50;100523.94;5021511;28;20407;-74
2022/07/30 05:26:03;;;;;;;3.63;2.67;;;;;;;21.19;55.78;100530.38;5013542;28;20939;-74
2022/07/30 05:28:29;;;;;;;3.30;3.00;;;;;;;21.21;55.63;100533.63;5013478;28;20435;-73
2022/07/30 05:30:54;;;;;;;6.30;3.17;;;;;;;21.18;55.70;100526.00;5013403;28;20397;-74
2022/07/30 05:33:21;;;;;;;3.38;2.70;;;;;;;21.17;55.68;100527.16;5013357;28;20881;-73
2022/07/30 05:35:46;;;;;;;3.50;2.72;;;;;;;21.29;55.40;100529.31;5011989;28;20408;-74
2022/07/30 05:38:12;;;;;;;4.43;2.90;;;;;;;21.31;55.29;100533.38;5013572;28;20455;-74
2022/07/30 05:40:37;;;;;;;3.45;2.33;;;;;;;21.33;55.36;100541.34;5011650;28;20929;-75
2022/07/30 05:43:05;;;;;;;5.77;3.33;;;;;;;21.31;55.35;100535.31;5016204;28;20417;-75
2022/07/30 05:45:30;;;;;;;7.20;2.80;;;;;;;21.32;55.25;100528.69;5018676;28;20574;-75
2022/07/30 05:47:55;;;;;;;2.70;2.50;;;;;;;21.35;55.16;100533.56;5013101;28;20476;-75
2022/07/30 05:50:23;;;;;;;2.30;2.20;;;;;;;21.44;54.85;100531.69;5012932;28;20408;-76
2022/07/30 05:52:48;;;;;;;4.28;2.60;;;;;;;21.45;54.76;100539.66;5021764;28;20807;-76
2022/07/30 05:55:14;;;;;;;9.33;2.80;;;;;;;21.45;54.63;100538.81;5012221;28;20422;-77
2022/07/30 05:57:42;;;;;;;3.78;2.90;;;;;;;21.43;54.69;100536.41;5005362;28;20851;-77
2022/07/30 06:00:09;;;;;;;2.63;2.42;;;;;;;21.54;54.44;100539.69;5009935;28;20444;-75
2022/07/30 06:02:36;;;;;;;4.05;2.65;;;;;;;21.67;54.09;100542.34;5012916;28;20414;-74
2022/07/30 06:05:01;;;;;;;5.47;4.00;;;;;;;21.74;53.77;100542.72;5006789;28;20416;-75
2022/07/30 06:07:27;;;;;;;3.78;3.33;;;;;;;21.72;53.75;100539.47;5015894;28;20768;-76
2022/07/30 06:09:52;;;;;;;4.60;3.20;;;;;;;21.74;53.81;100545.47;5018975;28;20496;-75
2022/07/30 06:12:18;;;;;;;4.40;3.10;;;;;;;21.74;53.90;100547.41;5012324;28;20403;-76
2022/07/30 06:14:44;;;;;;;3.88;2.80;;;;;;;21.76;53.71;100550.69;5008327;28;20508;-75
2022/07/30 06:17:09;;;;;;;5.13;3.07;;;;;;;21.84;53.55;100551.84;5017981;28;21019;-76
2022/07/30 06:19:35;;;;;;;4.63;2.63;;;;;;;21.80;53.50;100550.88;5005980;28;20419;-74
2022/07/30 06:22:00;;;;;;;3.47;2.80;;;;;;;21.77;53.61;100559.78;5008051;28;20437;-75
2022/07/30 06:24:25;;;;;;;8.37;2.93;;;;;;;21.81;53.49;100561.59;5004930;28;20448;-76
2022/07/30 06:26:51;;;;;;;4.73;2.80;;;;;;;21.89;53.29;100560.00;5012029;28;20388;-76
2022/07/30 06:29:16;;;;;;;4.82;2.58;;;;;;;22.01;52.76;100551.97;5008735;28;20810;-76
2022/07/30 06:31:41;;;;;;;5.00;2.83;;;;;;;21.99;52.90;100560.56;5010467;28;20419;-77
2022/07/30 06:34:06;;;;;;;5.93;2.67;;;;;;;21.97;53.06;100545.44;5008717;28;20420;-76
2022/07/30 06:36:32;;;;;;;3.97;2.63;;;;;;;22.00;53.09;100561.38;5009739;28;20926;-76
2022/07/30 06:38:57;;;;;;;2.43;2.27;;;;;;;22.01;53.05;100555.53;5012016;28;20501;-76
2022/07/30 06:41:23;;;;;;;3.07;2.70;;;;;;;22.06;53.00;100571.16;5018167;28;20757;-75
2022/07/30 06:43:49;;;;;;;5.37;2.97;;;;;;;22.18;52.81;100568.59;5011141;28;20761;-75
2022/07/30 06:46:15;;;;;;;4.00;2.38;;;;;;;22.31;52.52;100566.84;5016431;28;20407;-75
2022/07/30 06:48:41;;;;;;;5.23;2.87;;;;;;;22.35;52.34;100567.84;5006465;28;20431;-77
2022/07/30 06:51:06;;;;;;;4.90;2.92;;;;;;;22.36;52.46;100570.25;5006276;28;20444;-76
2022/07/30 06:53:31;;;;;;;3.63;2.70;;;;;;;22.50;51.85;100567.38;5011515;28;20495;-76
2022/07/30 06:55:57;;;;;;;3.73;2.73;;;;;;;22.65;51.45;100562.22;5010267;28;20469;-77
2022/07/30 06:58:22;;;;;;;8.70;2.43;;;;;;;22.81;51.06;100570.88;5007211;28;20507;-75
2022/07/30 07:00:47;;;;;;;5.22;2.60;;;;;;;22.91;51.08;100565.06;5009830;28;20422;-75
2022/07/30 07:03:12;;;;;;;3.07;2.50;;;;;;;23.01;50.91;100567.50;5015401;28;20467;-76
2022/07/30 07:05:40;;;;;;;2.70;2.50;;;;;;;23.11;50.65;100567.16;5013530;28;20508;-76
2022/07/30 07:08:06;;;;;;;3.38;2.70;;;;;;;23.30;50.38;100571.53;5012128;28;20472;-76
2022/07/30 07:10:31;;;;;;;5.37;2.90;;;;;;;23.44;49.95;100572.22;5011120;28;20504;-76
2022/07/30 07:12:56;;;;;;;4.40;2.60;;;;;;;23.52;50.21;100571.38;5010071;28;20416;-76
2022/07/30 07:15:22;;;;;;;5.20;2.45;;;;;;;23.62;49.75;100582.09;5004540;28;20518;-76
2022/07/30 07:17:47;;;;;;;5.70;2.80;;;;;;;23.72;49.28;100573.44;5011046;28;20530;-75
2022/07/30 07:20:12;;;;;;;4.77;2.40;;;;;;;23.76;49.44;100580.75;5010586;28;20439;-76
2022/07/30 07:22:38;;;;;;;2.40;2.00;;;;;;;23.82;49.44;100589.69;5005784;28;20412;-76
2022/07/30 07:25:04;;;;;;;2.20;2.10;;;;;;;23.88;49.41;100579.25;4997609;28;20411;-76
2022/07/30 07:27:30;;;;;;;4.73;2.30;;;;;;;23.91;49.06;100576.63;5011419;28;20420;-75
2022/07/30 07:29:55;;;;;;;4.25;2.40;;;;;;;24.00;48.97;100584.94;5011724;28;20410;-77
2022/07/30 07:32:20;;;;;;;3.20;2.63;;;;;;;24.02;48.60;100585.41;5010451;28;20408;-75
2022/07/30 07:34:46;;;;;;;2.60;2.40;;;;;;;24.05;48.46;100585.53;5009597;28;20413;-73
2022/07/30 07:37:11;;;;;;;2.30;2.17;;;;;;;24.10;48.31;100581.78;5005141;28;20815;-73
2022/07/30 07:39:36;;;;;;;3.70;2.30;;;;;;;24.07;48.12;100585.22;5010360;28;20418;-73
2022/07/30 07:42:02;;;;;;;2.37;2.10;;;;;;;24.10;47.97;100582.59;5020656;28;20417;-73
2022/07/30 07:44:27;;;;;;;4.95;2.63;;;;;;;24.21;47.97;100585.84;5013390;28;20795;-73
2022/07/30 07:46:52;;;;;;;2.50;2.23;;;;;;;24.22;48.01;100573.63;5013762;28;20823;-73
2022/07/30 07:49:18;;;;;;;3.27;2.33;;;;;;;24.27;47.63;100587.25;5012169;28;20400;-74
2022/07/30 07:51:43;;;;;;;3.53;2.23;;;;;;;24.25;47.83;100584.03;5013227;28;20407;-73
2022/07/30 07:54:09;;;;;;;4.07;2.58;;;;;;;24.31;47.60;100577.16;5014152;28;20438;-73
2022/07/30 07:56:34;;;;;;;4.32;2.33;;;;;;;24.36;47.77;100581.69;5020823;28;20453;-73
2022/07/30 07:58:59;;;;;;;3.20;2.20;;;;;;;24.40;47.34;100589.03;5013211;28;20492;-74
2022/07/30 08:01:24;;;;;;;3.87;2.33;;;;;;;24.48;47.26;100579.84;5012956;28;20420;-73
2022/07/30 08:03:50;;;;;;;9.53;2.40;;;;;;;24.51;47.45;100579.16;5012850;28;20411;-74
2022/07/30 08:06:15;;;;;;;2.43;2.07;;;;;;;24.52;47.69;100582.75;5012722;28;20752;-73
2022/07/30 08:08:40;;;;;;;4.10;2.43;;;;;;;24.43;47.49;100577.28;5013074;28;20448;-73
2022/07/30 08:11:06;;;;;;;2.33;2.13;;;;;;;24.31;47.78;100584.63;5012480;28;20840;-73
2022/07/30 08:13:31;;;;;;;7.03;2.00;;;;;;;24.23;47.63;100589.91;5014644;28;20443;-73
2022/07/30 08:15:57;;;;;;;2.28;2.08;;;;;;;24.13;47.79;100570.09;5014581;28;20401;-73
2022/07/30 08:18:23;;;;;;;4.60;2.47;;;;;;;24.20;47.79;100578.69;5012505;28;20393;-73
2022/07/30 08:20:49;;;;;;;2.75;2.40;;;;;;;24.28;47.12;100583.34;5010202;28;20544;-74
2022/07/30 08:23:14;;;;;;;3.33;2.33;;;;;;;24.28;47.29;100584.19;5000896;28;20434;-73
2022/07/30 08:25:39;;;;;;;2.40;2.20;;;;;;;24.29;47.17;100579.44;5012828;28;20405;-74
2022/07/30 08:28:05;;;;;;;2.90;2.35;;;;;;;24.32;47.17;100575.19;5010943;28;20835;-73
2022/07/30 08:30:30;;;;;;;2.90;2.10;;;;;;;24.45;47.09;100579.69;5007181;28;20395;-74
2022/07/30 08:32:56;;;;;;;3.43;2.10;;;;;;;24.53;46.58;100573.31;5010702;28;20415;-74
2022/07/30 08:35:21;;;;;;;3.90;2.20;;;;;;;24.60;46.28;100571.59;5014250;28;20567;-74
2022/07/30 08:37:46;;;;;;;5.13;2.47;;;;;;;24.71;45.66;100570.06;5012947;28;20417;-74
2022/07/30 08:40:12;;;;;;;3.07;2.30;;;;;;;24.80;45.39;100576.34;5006811;28;20516;-74
2022/07/30 08:42:37;;;;;;;4.47;2.38;;;;;;;24.89;45.02;100572.75;5000707;28;20401;-74
2022/07/30 08:45:04;;;;;;;2.73;2.07;;;;;;;24.94;44.88;100573.34;5013975;28;20399;-74
2022/07/30 08:47:33;;;;;;;3.85;2.17;;;;;;;25.02;44.55;100578.03;5010835;28;20840;-73
2022/07/30 08:50:03;;;;;;;4.10;2.50;;;;;;;25.06;44.84;100567.09;5011795;28;20407;-73
2022/07/30 08:52:35;;;;;;;4.60;2.20;;;;;;;25.12;44.67;100571.28;5011367;28;20405;-74
2022/07/30 08:55:00;;;;;;;2.27;2.07;;;;;;;25.25;44.57;100579.31;5014000;28;20405;-74
2022/07/30 08:57:30;;;;;;;7.07;2.50;;;;;;;25.34;44.21;100573.66;5013817;28;20443;-74
2022/07/30 08:59:58;;;;;;;2.22;2.00;;;;;;;25.43;43.83;100568.84;5012205;28;20466;-74
2022/07/30 09:02:24;;;;;;;2.67;1.83;;;;;;;25.52;42.85;100568.81;4995193;28;20420;-74
2022/07/30 09:04:49;;;;;;;2.63;2.00;;;;;;;25.65;42.96;100567.69;5012603;28;20397;-73
2022/07/30 09:07:14;;;;;;;3.75;1.90;;;;;;;25.78;42.56;100569.34;5013941;28;20474;-75
2022/07/30 09:09:40;;;;;;;1.60;1.50;;;;;;;25.91;40.95;100570.16;5012198;28;20942;-74
2022/07/30 09:12:35;;;;;;;3.60;1.57;;;;;;;26.01;40.15;100570.53;5005850;28;20461;-75
2022/07/30 09:15:14;;;;;;;2.80;1.35;;;;;;;26.23;38.53;100569.28;5004862;28;20408;-74
2022/07/30 09:17:59;;;;;;;3.80;1.33;;;;;;;26.42;37.16;100572.31;5012368;28;20444;-75
2022/07/30 09:20:28;;;;;;;4.15;1.58;;;;;;;26.50;36.62;100578.91;4997076;28;20445;-75
2022/07/30 09:22:59;;;;;;;2.45;1.60;;;;;;;26.53;36.99;100578.22;5002372;28;20745;-74
2022/07/30 09:25:45;;;;;;;1.77;1.50;;;;;;;26.41;37.13;100579.00;5011790;28;20775;-75
2022/07/30 09:28:11;;;;;;;1.60;1.50;;;;;;;26.44;37.40;100572.78;5012369;28;20419;-75
2022/07/30 09:30:52;;;;;;;2.63;1.58;;;;;;;26.54;37.78;100561.16;5010764;28;20448;-75
2022/07/30 09:33:36;;;;;;;3.60;1.35;;;;;;;26.81;37.84;100566.03;5012595;28;20397;-75
2022/07/30 09:36:03;;;;;;;1.35;1.25;;;;;;;27.09;37.87;100565.25;4998126;28;20421;-76
2022/07/30 09:38:28;;;;;;;3.50;2.00;;;;;;;27.25;37.38;100564.16;5011292;28;20409;-75
2022/07/30 09:40:56;;;;;;;1.80;1.70;;;;;;;27.34;37.06;100555.66;5010605;28;20435;-75
2022/07/30 09:43:21;;;;;;;4.57;2.10;;;;;;;27.52;36.69;100554.22;5012929;28;20393;-75
2022/07/30 09:45:52;;;;;;;1.30;1.30;;;;;;;27.74;36.55;100561.16;5011640;28;20393;-75
2022/07/30 09:48:22;;;;;;;2.88;1.58;;;;;;;28.00;35.63;100561.44;5009573;28;20462;-74
2022/07/30 09:50:49;;;;;;;2.10;1.80;;;;;;;28.25;35.88;100551.78;5012424;28;20412;-75
2022/07/30 09:53:14;;;;;;;2.33;1.73;;;;;;;28.48;34.86;100556.69;5010354;28;20423;-74
2022/07/30 09:55:40;;;;;;;2.08;1.80;;;;;;;28.34;35.20;100554.34;5010701;28;20413;-75
2022/07/30 09:58:06;;;;;;;2.17;1.60;;;;;;;28.54;34.52;100552.44;5010583;28;20907;-75
2022/07/30 10:00:36;;;;;;;1.60;1.50;;;;;;;29.20;33.71;100555.91;5011576;28;20780;-75
2022/07/30 10:03:14;;;;;;;2.97;1.70;;;;;;;29.65;32.46;100558.03;5025445;28;20459;-75
2022/07/30 10:05:49;;;;;;;1.98;1.50;;;;;;;30.38;31.25;100548.53;5008577;28;20823;-74
2022/07/30 10:08:14;;;;;;;1.27;1.10;;;;;;;31.15;30.52;100545.25;5008266;28;20496;-74
2022/07/30 10:10:39;;;;;;;8.60;1.40;;;;;;;31.73;29.74;100546.34;5022356;28;20482;-75
2022/07/30 10:13:07;;;;;;;3.67;1.50;;;;;;;31.70;29.34;100554.69;5014872;28;20421;-73
2022/07/30 10:15:34;;;;;;;3.40;1.40;;;;;;;32.30;28.96;100542.06;5041809;28;20423;-73
2022/07/30 10:18:02;;;;;;;1.73;1.05;;;;;;;33.10;27.88;100539.34;5011947;28;20843;-73
2022/07/30 10:20:31;;;;;;;2.97;1.20;;;;;;;33.65;26.42;100539.94;5012614;28;20420;-73
2022/07/30 10:22:56;;;;;;;5.28;1.13;;;;;;;34.47;25.70;100550.03;5011484;28;20431;-73
2022/07/30 10:25:24;;;;;;;2.30;1.20;;;;;;;35.52;24.36;100552.91;5009168;28;20456;-73
2022/07/30 10:27:53;;;;;;;1.60;1.23;;;;;;;36.34;23.71;100548.28;5011295;28;20470;-72
2022/07/30 10:30:18;;;;;;;4.15;1.67;;;;;;;36.95;22.53;100538.00;5009482;28;20409;-74
2022/07/30 10:32:45;;;;;;;2.07;1.10;;;;;;;36.10;23.34;100538.84;5012099;28;20396;-74
2022/07/30 10:35:12;;;;;;;2.15;1.13;;;;;;;37.06;22.01;100541.50;5009948;28;20409;-74
2022/07/30 10:37:46;;;;;;;1.13;0.90;;;;;;;37.50;20.90;100536.91;5010249;28;20508;-74
2022/07/30 10:40:34;;;;;;;4.03;1.10;;;;;;;35.45;22.71;100536.84;5014717;28;20490;-74
2022/07/30 10:43:37;;;;;;;1.42;1.33;;;;;;;34.71;23.66;100545.59;5018676;28;20432;-74
2022/07/30 10:46:19;;;;;;;1.25;0.98;;;;;;;34.68;23.50;100538.75;5005936;28;20445;-74
2022/07/30 10:48:44;;;;;;;1.67;1.35;;;;;;;36.30;22.11;100527.78;5009581;28;20396;-76
2022/07/30 10:51:10;;;;;;;1.80;0.70;;;;;;;37.90;20.39;100518.91;5008478;28;20421;-76
2022/07/30 10:53:45;;;;;;;2.50;0.83;;;;;;;38.49;19.43;100533.28;5013756;28;20446;-74
2022/07/30 10:56:19;;;;;;;1.45;1.08;;;;;;;38.78;19.07;100533.53;5009550;28;20385;-73
2022/07/30 10:59:04;;;;;;;1.42;0.95;;;;;;;39.32;18.51;100532.00;5010099;28;20436;-74
2022/07/30 11:01:50;;;;;;;2.00;1.08;;;;;;;39.79;17.70;100534.59;5016351;28;20414;-74
2022/07/30 11:04:22;;;;;;;1.30;1.00;;;;;;;40.25;17.51;100525.75;4999296;28;20424;-74
2022/07/30 11:06:48;;;;;;;4.10;0.90;;;;;;;40.24;17.03;100527.00;5007587;28;20942;-74
2022/07/30 11:09:33;;;;;;;1.40;0.98;;;;;;;40.52;17.40;100531.09;5001742;28;20409;-73
2022/07/30 11:11:59;;;;;;;2.60;0.90;;;;;;;41.19;16.82;100529.22;4995888;28;20404;-74
2022/07/30 11:14:44;;;;;;;0.93;0.80;;;;;;;41.90;16.30;100522.09;5004399;28;20415;-74
2022/07/30 11:17:10;;;;;;;1.33;0.90;;;;;;;42.17;15.50;100526.47;5009921;28;20412;-75
2022/07/30 11:20:02;;;;;;;1.23;0.90;;;;;;;42.03;15.82;100519.22;5013155;28;20404;-74
2022/07/30 11:22:27;;;;;;;2.42;0.70;;;;;;;42.41;15.64;100519.16;5009513;28;20404;-74
2022/07/30 11:24:53;;;;;;;1.87;0.90;;;;;;;42.37;15.24;100521.34;5011556;28;20389;-74
2022/07/30 11:27:34;;;;;;;1.83;0.90;;;;;;;41.77;15.92;100520.50;5009957;28;20412;-74
2022/07/30 11:29:59;;;;;;;4.00;0.70;;;;;;;42.03;15.54;100516.38;5012125;28;20412;-74
2022/07/30 11:32:30;;;;;;;2.03;0.90;;;;;;;42.47;14.98;100517.31;5011282;28;20400;-73